Time;durP1;ratioP1;P1;durP2;ratioP2;P2;SDS_P1;SDS_P2;PMS_P1;PMS_P2;Temp;Humidity;BMP_temperature;BMP_pressure;BME280_temperature;BME280_humidity;BME280_pressure;Samples;Min_cycle;Max_cycle;Signal;HPM_P1;HPM_P2
2024/02/01 03:53:51;;;;;;;0.03;0.03;;;;;;;;;;5043300;28;20052;-91
2024/02/01 03:56:23;;;;;;;0.10;0.10;;;;;;;;;;5041438;28;20097;-91
2024/02/01 03:58:49;;;;;;;0.10;0.10;;;;;;;;;;5040683;28;20057;-92
2024/02/01 04:01:15;;;;;;;0.00;0.00;;;;;;;;;;5043917;28;20036;-91
2024/02/01 04:03:41;;;;;;;0.10;0.10;;;;;;;;;;5038807;28;20061;-90
2024/02/01 04:06:07;;;;;;;0.10;0.10;;;;;;;;;;5027764;23;20046;-91
2024/02/01 04:08:33;;;;;;;0.10;0.10;;;;;;;;;;4985336;28;20050;-91
2024/02/01 04:10:59;;;;;;;0.10;0.10;;;;;;;;;;4991267;28;20044;-93
2024/02/01 04:13:25;;;;;;;0.10;0.10;;;;;;;;;;5010300;28;20027;-93
2024/02/01 04:15:52;;;;;;;0.10;0.10;;;;;;;;;;4986273;28;20041;-93
2024/02/01 04:18:18;;;;;;;0.10;0.10;;;;;;;;;;5018698;28;20034;-93
2024/02/01 04:20:44;;;;;;;0.10;0.10;;;;;;;;;;5005129;28;20034;-93
2024/02/01 04:23:10;;;;;;;0.10;0.10;;;;;;;;;;5016121;28;20054;-91
2024/02/01 04:25:36;;;;;;;0.10;0.10;;;;;;;;;;4997853;28;20023;-92
2024/02/01 04:28:08;;;;;;;0.10;0.10;;;;;;;;;;4990727;28;20093;-90
2024/02/01 04:30:34;;;;;;;0.10;0.10;;;;;;;;;;4989175;28;20053;-93
2024/02/01 04:33:00;;;;;;;0.10;0.10;;;;;;;;;;5004074;28;20038;-93
2024/02/01 04:35:28;;;;;;;0.10;0.10;;;;;;;;;;5008247;28;20030;-91
2024/02/01 04:37:54;;;;;;;0.10;0.10;;;;;;;;;;5002596;28;20061;-92
2024/02/01 04:40:21;;;;;;;0.00;0.00;;;;;;;;;;5010055;28;20089;-92
2024/02/01 04:42:51;;;;;;;0.10;0.10;;;;;;;;;;4991703;28;20026;-92
2024/02/01 04:45:18;;;;;;;0.10;0.10;;;;;;;;;;5007089;28;20058;-93
2024/02/01 04:47:44;;;;;;;0.00;0.00;;;;;;;;;;4993500;28;20113;-93
2024/02/01 04:50:11;;;;;;;0.10;0.10;;;;;;;;;;4994423;28;20042;-92
2024/02/01 04:52:37;;;;;;;0.10;0.10;;;;;;;;;;4993884;28;20052;-92
2024/02/01 04:55:03;;;;;;;0.10;0.10;;;;;;;;;;5009984;28;20473;-93
2024/02/01 04:57:29;;;;;;;0.10;0.10;;;;;;;;;;4996110;28;20125;-92
2024/02/01 04:59:55;;;;;;;0.00;0.00;;;;;;;;;;5007038;28;20057;-92
2024/02/01 05:02:21;;;;;;;0.00;0.00;;;;;;;;;;5005780;28;20023;-93
2024/02/01 05:04:47;;;;;;;0.00;0.00;;;;;;;;;;5007594;28;20053;-93
2024/02/01 05:07:13;;;;;;;0.00;0.00;;;;;;;;;;5004132;28;20030;-93
2024/02/01 05:09:40;;;;;;;0.00;0.00;;;;;;;;;;4993672;28;20041;-93
2024/02/01 05:12:06;;;;;;;0.10;0.10;;;;;;;;;;4994421;28;20041;-92
2024/02/01 05:14:32;;;;;;;0.10;0.10;;;;;;;;;;4996187;28;20028;-92
2024/02/01 05:16:58;;;;;;;0.10;0.10;;;;;;;;;;5006825;28;20038;-92
2024/02/01 05:19:25;;;;;;;0.00;0.00;;;;;;;;;;4990931;28;20045;-92
2024/02/01 05:21:54;;;;;;;0.00;0.00;;;;;;;;;;5007524;28;20030;-92
2024/02/01 05:24:23;;;;;;;0.10;0.10;;;;;;;;;;5013185;28;20033;-92
2024/02/01 05:26:50;;;;;;;0.00;0.00;;;7.50;99.90;;;;;;4990975;28;20117;-91
2024/02/01 05:29:23;;;;;;;0.10;0.10;;;;;;;;;;4988070;28;20026;-92
2024/02/01 05:31:50;;;;;;;0.10;0.10;;;7.40;99.90;;;;;;5011515;28;20034;-92
2024/02/01 05:34:20;;;;;;;0.10;0.10;;;;;;;;;;5008541;28;20026;-93
2024/02/01 05:36:47;;;;;;;0.10;0.10;;;7.40;99.90;;;;;;4995705;28;20085;-92
2024/02/01 05:39:25;;;;;;;0.10;0.10;;;;;;;;;;5010430;28;20370;-92
2024/02/01 05:41:58;;;;;;;0.10;0.10;;;;;;;;;;4996347;28;20118;-92
2024/02/01 05:44:25;;;;;;;0.00;0.00;;;;;;;;;;4997594;28;20029;-92
2024/02/01 05:46:55;;;;;;;0.10;0.10;;;7.20;99.90;;;;;;4998624;28;20023;-92
2024/02/01 05:49:26;;;;;;;0.10;0.10;;;;;;;;;;4990781;28;20225;-92
2024/02/01 05:51:53;;;;;;;0.00;0.00;;;;;;;;;;4989288;28;20370;-92
2024/02/01 05:54:20;;;;;;;0.10;0.10;;;;;;;;;;4995179;28;20030;-92
2024/02/01 05:56:49;;;;;;;0.10;0.10;;;;;;;;;;5011479;28;20037;-92
2024/02/01 05:59:16;;;;;;;0.10;0.10;;;;;;;;;;5012025;28;20030;-92
2024/02/01 06:01:42;;;;;;;0.10;0.10;;;;;;;;;;5012488;28;20041;-92
2024/02/01 06:04:09;;;;;;;0.05;0.05;;;;;;;;;;4994379;28;20026;-92
2024/02/01 06:06:41;;;;;;;0.10;0.10;;;;;;;;;;5007425;28;20041;-92
2024/02/01 06:09:11;;;;;;;0.10;0.10;;;;;;;;;;4991972;28;20034;-92
2024/02/01 06:11:50;;;;;;;0.10;0.10;;;;;;;;;;4993486;28;20105;-92
2024/02/01 06:14:16;;;;;;;0.05;0.05;;;;;;;;;;4993551;28;20173;-92
2024/02/01 06:16:43;;;;;;;0.10;0.10;;;;;;;;;;5012882;28;20022;-92
2024/02/01 06:19:09;;;;;;;0.10;0.10;;;;;;;;;;5008364;28;20056;-92
2024/02/01 06:21:36;;;;;;;0.10;0.10;;;;;;;;;;5006111;28;20061;-90
2024/02/01 06:24:02;;;;;;;0.10;0.10;;;;;;;;;;5012499;28;20030;-91
2024/02/01 06:26:29;;;;;;;0.10;0.10;;;;;;;;;;5008442;28;20022;-93
2024/02/01 06:28:57;;;;;;;0.00;0.00;;;;;;;;;;4997110;28;20030;-92
2024/02/01 06:31:24;;;;;;;0.10;0.10;;;;;;;;;;5008713;28;20065;-92
2024/02/01 06:33:51;;;;;;;0.03;0.03;;;;;;;;;;5003610;28;20520;-93
2024/02/01 06:36:19;;;;;;;0.10;0.10;;;;;;;;;;5008285;28;20030;-92
2024/02/01 06:39:37;;;;;;;0.00;0.00;;;;;;;;;;4995758;28;20053;-92
2024/02/01 06:41:48;;;;;;;0.10;0.10;;;;;;;;;;4988150;28;20118;-92
2024/02/01 06:44:24;;;;;;;0.00;0.00;;;6.30;99.90;;;;;;5013263;28;20022;-92
2024/02/01 06:49:39;;;;;;;0.10;0.10;;;;;;;;;;4993475;28;20027;-93
2024/02/01 06:54:50;;;;;;;0.10;0.10;;;;;;;;;;4998965;28;20026;-93
2024/02/01 06:57:22;;;;;;;0.10;0.10;;;;;;;;;;5010777;28;20026;-93
2024/02/01 07:00:17;;;;;;;0.10;0.10;;;;;;;;;;4993434;28;20029;-92
2024/02/01 07:03:01;;;;;;;0.10;0.10;;;;;;;;;;4996865;28;20030;-91
2024/02/01 07:05:58;;;;;;;0.10;0.10;;;;;;;;;;5012587;28;20030;-92
2024/02/01 07:08:14;;;;;;;0.10;0.10;;;;;;;;;;4994034;28;20037;-92
2024/02/01 07:10:43;;;;;;;0.10;0.10;;;;;;;;;;4995320;28;20489;-93
2024/02/01 07:13:22;;;;;;;0.00;0.00;;;;;;;;;;4997438;28;20030;-92
2024/02/01 07:16:04;;;;;;;0.10;0.10;;;;;;;;;;5003871;28;20030;-92
2024/02/01 07:18:30;;;;;;;0.10;0.10;;;;;;;;;;5012531;28;20516;-92
2024/02/01 07:21:08;;;;;;;0.10;0.10;;;;;;;;;;5009988;28;20037;-93
2024/02/01 07:23:37;;;;;;;0.10;0.10;;;;;;;;;;5004170;28;20025;-92
2024/02/01 07:26:35;;;;;;;0.00;0.00;;;;;;;;;;5005153;28;20023;-93
2024/02/01 07:59:27;;;;;;;0.00;0.00;;;;;;;;;;4994756;28;20041;-92
2024/02/01 08:02:13;;;;;;;0.10;0.10;;;;;;;;;;5010372;28;20026;-93
2024/02/01 08:10:08;;;;;;;0.10;0.10;;;;;;;;;;4988826;28;20117;-93
2024/02/01 08:12:34;;;;;;;0.10;0.10;;;;;;;;;;5012085;28;20034;-93
2024/02/01 08:15:00;;;;;;;0.00;0.00;;;;;;;;;;4989493;28;20037;-93
2024/02/01 08:17:26;;;;;;;0.10;0.10;;;;;;;;;;4989012;28;20480;-92
2024/02/01 08:19:53;;;;;;;0.10;0.10;;;;;;;;;;5008542;28;20026;-92
2024/02/01 08:22:18;;;;;;;0.10;0.10;;;;;;;;;;5000019;28;20027;-93
2024/02/01 08:24:46;;;;;;;0.10;0.10;;;;;;;;;;5008268;28;20477;-92
2024/02/01 08:27:20;;;;;;;0.10;0.10;;;;;;;;;;4995182;28;20033;-92
2024/02/01 08:29:47;;;;;;;0.10;0.10;;;;;;;;;;5010535;28;20180;-93
2024/02/01 08:32:19;;;;;;;0.10;0.10;;;;;;;;;;5010894;28;20053;-93
2024/02/01 08:34:45;;;;;;;0.10;0.10;;;;;;;;;;5005455;28;20034;-93
2024/02/01 08:37:11;;;;;;;0.10;0.10;;;;;;;;;;5001282;28;20036;-92
2024/02/01 08:39:44;;;;;;;0.00;0.00;;;;;;;;;;5005721;28;20034;-93
2024/02/01 08:42:12;;;;;;;0.10;0.10;;;;;;;;;;4991128;28;20101;-92
2024/02/01 08:44:38;;;;;;;0.08;0.08;;;;;;;;;;5009983;28;20018;-94
2024/02/01 08:47:04;;;;;;;0.10;0.10;;;;;;;;;;4989085;28;20056;-93
2024/02/01 08:49:38;;;;;;;0.00;0.00;;;;;;;;;;5011503;28;20030;-93
2024/02/01 08:52:05;;;;;;;0.10;0.10;;;;;;;;;;5006567;28;20510;-92
2024/02/01 08:54:31;;;;;;;0.00;0.00;;;;;;;;;;4990287;28;20030;-92
2024/02/01 08:56:57;;;;;;;0.10;0.10;;;;;;;;;;4994460;28;20034;-93
2024/02/01 08:59:23;;;;;;;0.10;0.10;;;;;;;;;;5008671;28;20375;-92
2024/02/01 09:01:49;;;;;;;0.10;0.10;;;;;;;;;;5008082;28;20019;-91
2024/02/01 09:04:15;;;;;;;0.10;0.10;;;;;;;;;;5007823;28;20046;-93
2024/02/01 09:06:41;;;;;;;0.10;0.10;;;;;;;;;;5004632;28;20066;-93
2024/02/01 09:09:28;;;;;;;0.10;0.10;;;;;;;;;;4993435;28;20445;-92
2024/02/01 09:11:53;;;;;;;0.10;0.10;;;;;;;;;;4990918;28;20089;-90
2024/02/01 09:14:19;;;;;;;0.10;0.10;;;;;;;;;;5007081;28;20034;-92
2024/02/01 09:16:45;;;;;;;0.10;0.10;;;;;;;;;;5009050;28;20038;-92
2024/02/01 09:19:14;;;;;;;0.00;0.00;;;;;;;;;;5010329;28;20033;-92
2024/02/01 09:21:40;;;;;;;0.10;0.10;;;;;;;;;;5008140;28;20026;-92
2024/02/01 09:24:06;;;;;;;0.00;0.00;;;;;;;;;;5009956;28;20049;-94
2024/02/01 09:26:32;;;;;;;0.10;0.10;;;;;;;;;;5013147;28;20026;-93
2024/02/01 09:28:58;;;;;;;0.10;0.10;;;;;;;;;;5014005;28;20034;-93
2024/02/01 09:31:24;;;;;;;0.00;0.00;;;;;;;;;;4990451;28;20038;-93
2024/02/01 09:33:50;;;;;;;0.10;0.10;;;;;;;;;;5013570;28;20041;-93
2024/02/01 09:36:16;;;;;;;0.10;0.10;;;;;;;;;;5010401;28;20042;-92
2024/02/01 09:38:42;;;;;;;0.08;0.08;;;;;;;;;;5003135;28;20038;-92
2024/02/01 09:41:20;;;;;;;0.10;0.10;;;;;;;;;;5012854;28;20301;-92
2024/02/01 09:43:49;;;;;;;0.10;0.10;;;6.50;99.90;;;;;;5008176;28;20033;-90
2024/02/01 09:46:16;;;;;;;0.10;0.10;;;6.50;99.90;;;;;;4992510;28;20034;-95
2024/02/01 09:48:42;;;;;;;0.10;0.10;;;;;;;;;;5004018;28;20033;-92
2024/02/01 09:51:17;;;;;;;0.00;0.00;;;;;;;;;;5011178;28;21409;-92
2024/02/01 09:53:43;;;;;;;0.10;0.10;;;;;;;;;;4994723;28;20042;-92
2024/02/01 09:56:10;;;;;;;0.10;0.10;;;;;;;;;;5000047;28;20062;-93
2024/02/01 09:58:35;;;;;;;0.10;0.10;;;;;;;;;;5015046;28;20030;-93
2024/02/01 10:01:01;;;;;;;0.10;0.10;;;;;;;;;;5011100;28;20385;-94
2024/02/01 10:03:27;;;;;;;0.10;0.10;;;;;;;;;;5016700;28;20030;-94
2024/02/01 10:18:53;;;;;;;0.08;0.08;;;;;;;;;;5005024;28;20038;-87
2024/02/01 10:21:22;;;;;;;0.10;0.10;;;7.30;99.90;;;;;;5006294;28;21263;-90
2024/02/01 10:23:48;;;;;;;0.10;0.10;;;7.40;99.90;;;;;;5005479;28;20101;-92
2024/02/01 10:26:23;;;;;;;0.03;0.03;;;7.30;99.90;;;;;;5025206;28;20026;-88
2024/02/01 10:28:50;;;;;;;0.00;0.00;;;;;;;;;;5010415;28;20041;-89
2024/02/01 10:31:19;;;;;;;0.10;0.10;;;7.40;99.90;;;;;;5012368;28;20037;-88
2024/02/01 10:33:47;;;;;;;0.08;0.08;;;7.60;99.90;;;;;;5011731;28;20032;-90
2024/02/01 10:36:20;;;;;;;0.00;0.00;;;7.50;99.90;;;;;;5023189;28;20046;-89
2024/02/01 10:38:50;;;;;;;0.10;0.10;;;7.60;99.90;;;;;;5005549;28;20058;-89
2024/02/01 10:41:26;;;;;;;0.10;0.10;;;7.80;99.90;;;;;;5008985;28;20022;-89
2024/02/01 10:43:52;;;;;;;0.10;0.10;;;;;;;;;;5007694;28;20034;-89
2024/02/01 10:46:35;;;;;;;0.00;0.00;;;7.80;99.90;;;;;;5003953;28;20562;-90
2024/02/01 10:49:21;;;;;;;0.10;0.10;;;8.00;99.90;;;;;;5005562;28;20048;-89
2024/02/01 10:51:49;;;;;;;0.08;0.08;;;;;;;;;;5007537;28;20109;-90
2024/02/01 10:54:15;;;;;;;0.00;0.00;;;;;;;;;;5008132;28;20397;-89
2024/02/01 10:56:42;;;;;;;0.10;0.10;;;;;;;;;;5009605;28;20061;-89
2024/02/01 10:59:09;;;;;;;0.10;0.10;;;;;;;;;;5006229;28;20061;-87
2024/02/01 11:01:37;;;;;;;0.10;0.10;;;7.70;99.90;;;;;;5009963;28;20043;-87
2024/02/01 11:04:06;;;;;;;0.10;0.10;;;7.80;99.90;;;;;;5011595;28;20049;-89
2024/02/01 11:06:32;;;;;;;0.10;0.10;;;;;;;;;;5009509;28;20022;-87
2024/02/01 11:09:18;;;;;;;0.00;0.00;;;;;;;;;;5011721;28;20034;-86
2024/02/01 11:11:44;;;;;;;0.00;0.00;;;;;;;;;;5010859;28;20023;-89
2024/02/01 11:14:15;;;;;;;0.10;0.10;;;7.70;99.90;;;;;;5010546;28;20042;-87
2024/02/01 11:16:42;;;;;;;0.10;0.10;;;7.70;99.90;;;;;;5012261;28;20074;-89
2024/02/01 11:19:11;;;;;;;0.00;0.00;;;7.80;99.90;;;;;;5012430;28;20237;-88
2024/02/01 11:21:49;;;;;;;0.10;0.10;;;8.90;99.90;;;;;;5011819;28;20019;-86
2024/02/01 11:24:21;;;;;;;0.10;0.10;;;7.80;99.90;;;;;;4992991;28;20042;-87
2024/02/01 11:26:54;;;;;;;0.10;0.10;;;7.90;99.90;;;;;;5009830;28;20079;-88
2024/02/01 11:29:22;;;;;;;0.10;0.10;;;;;;;;;;5014042;28;20064;-87
2024/02/01 11:31:48;;;;;;;0.10;0.10;;;;;;;;;;5009835;28;20026;-88
2024/02/01 11:34:15;;;;;;;0.10;0.10;;;8.10;99.90;;;;;;5012129;28;20011;-88
2024/02/01 11:36:43;;;;;;;0.10;0.10;;;;;;;;;;5012492;28;20022;-89
2024/02/01 11:39:11;;;;;;;0.10;0.10;;;;;;;;;;5012404;28;20565;-86
2024/02/01 11:41:37;;;;;;;0.00;0.00;;;;;;;;;;5011753;28;20019;-87
2024/02/01 11:44:04;;;;;;;0.10;0.10;;;;;;;;;;5006606;28;20019;-88
2024/02/01 11:46:30;;;;;;;0.00;0.00;;;;;;;;;;5003016;28;20034;-85
2024/02/01 11:48:56;;;;;;;0.10;0.10;;;;;;;;;;5012700;28;20025;-86
2024/02/01 11:51:25;;;;;;;0.00;0.00;;;8.10;99.90;;;;;;5014180;28;20054;-88
2024/02/01 11:53:52;;;;;;;0.00;0.00;;;;;;;;;;5011135;28;20022;-86
2024/02/01 11:56:21;;;;;;;0.03;0.03;;;8.20;99.90;;;;;;5013470;28;20023;-89
2024/02/01 11:58:47;;;;;;;0.00;0.00;;;;;;;;;;5011873;28;20022;-88
2024/02/01 12:01:13;;;;;;;0.10;0.10;;;;;;;;;;5009149;28;20041;-88
2024/02/01 12:03:49;;;;;;;0.10;0.10;;;8.00;99.90;;;;;;5006465;28;20045;-88
2024/02/01 12:06:17;;;;;;;0.03;0.03;;;8.10;99.90;;;;;;5006117;28;20022;-86
2024/02/01 12:08:44;;;;;;;0.00;0.00;;;8.00;99.90;;;;;;5009780;28;20014;-88
2024/02/01 12:11:11;;;;;;;0.00;0.00;;;;;;;;;;5014073;28;20034;-84
2024/02/01 12:13:37;;;;;;;0.10;0.10;;;;;;;;;;5010227;28;20035;-90
2024/02/01 12:16:04;;;;;;;0.10;0.10;;;;;;;;;;5015603;28;20062;-90
2024/02/01 12:18:31;;;;;;;0.10;0.10;;;;;;;;;;5008352;28;20038;-87
2024/02/01 12:20:57;;;;;;;0.08;0.08;;;;;;;;;;5012601;28;20030;-89
2024/02/01 12:23:23;;;;;;;0.08;0.08;;;;;;;;;;5010478;28;20050;-90
2024/02/01 12:25:50;;;;;;;0.00;0.00;;;;;;;;;;5014710;28;20099;-94
2024/02/01 12:28:17;;;;;;;0.05;0.05;;;7.80;99.90;;;;;;5012335;28;20017;-88
2024/02/01 12:30:44;;;;;;;0.10;0.10;;;;;;;;;;5013286;28;20022;-87
2024/02/01 12:33:12;;;;;;;0.10;0.10;;;;;;;;;;5013806;28;20025;-86
2024/02/01 12:35:38;;;;;;;0.00;0.00;;;;;;;;;;5005722;28;20062;-86
2024/02/01 12:38:04;;;;;;;0.03;0.03;;;;;;;;;;5011471;28;20050;-88
2024/02/01 12:40:30;;;;;;;0.10;0.10;;;;;;;;;;5010711;28;20101;-86
2024/02/01 12:43:01;;;;;;;0.00;0.00;;;;;;;;;;5012963;28;20023;-87
2024/02/01 12:45:27;;;;;;;0.00;0.00;;;;;;;;;;5009719;28;20046;-85
2024/02/01 12:47:53;;;;;;;0.10;0.10;;;;;;;;;;5011150;28;20037;-86
2024/02/01 12:50:20;;;;;;;0.00;0.00;;;8.70;99.90;;;;;;5009335;28;20034;-85
2024/02/01 12:52:46;;;;;;;0.08;0.08;;;;;;;;;;5009178;28;20038;-88
2024/02/01 12:55:12;;;;;;;0.10;0.10;;;;;;;;;;5006145;28;20030;-90
2024/02/01 12:57:40;;;;;;;0.10;0.10;;;;;;;;;;5006367;28;20054;-90
2024/02/01 13:00:07;;;;;;;0.08;0.08;;;;;;;;;;5010311;28;20027;-90
2024/02/01 13:02:33;;;;;;;0.00;0.00;;;;;;;;;;5009666;28;20030;-89
2024/02/01 13:04:59;;;;;;;0.00;0.00;;;;;;;;;;5009368;28;20102;-87
2024/02/01 13:07:25;;;;;;;0.08;0.08;;;;;;;;;;5014691;28;20034;-89
2024/02/01 13:09:51;;;;;;;0.10;0.10;;;;;;;;;;5009670;28;20034;-88
2024/02/01 13:12:23;;;;;;;0.03;0.03;;;;;;;;;;5008761;28;20046;-86
2024/02/01 13:14:57;;;;;;;0.05;0.05;;;;;;;;;;5009368;28;20054;-88
2024/02/01 13:17:28;;;;;;;0.00;0.00;;;8.80;99.90;;;;;;5006307;28;20037;-89
2024/02/01 13:19:55;;;;;;;0.00;0.00;;;;;;;;;;5006756;28;20026;-89
2024/02/01 13:22:21;;;;;;;0.00;0.00;;;;;;;;;;5009265;28;20045;-89
2024/02/01 13:24:47;;;;;;;0.10;0.10;;;;;;;;;;5009498;28;20010;-88
2024/02/01 13:27:13;;;;;;;0.03;0.03;;;;;;;;;;5005365;28;20085;-88
2024/02/01 13:29:40;;;;;;;0.10;0.10;;;;;;;;;;5007709;28;20041;-89
2024/02/01 13:32:08;;;;;;;0.00;0.00;;;;;;;;;;5013014;28;20030;-86
2024/02/01 13:34:40;;;;;;;0.10;0.10;;;9.10;99.90;;;;;;5010815;28;20019;-88
2024/02/01 13:37:07;;;;;;;0.08;0.08;;;9.10;99.90;;;;;;5032775;28;20041;-87
2024/02/01 13:39:33;;;;;;;0.00;0.00;;;9.10;99.90;;;;;;5017342;28;20022;-86
2024/02/01 13:42:03;;;;;;;0.00;0.00;;;9.10;99.90;;;;;;5008681;28;20042;-89
2024/02/01 13:44:29;;;;;;;0.10;0.10;;;;;;;;;;5033806;28;20044;-87
2024/02/01 22:08:59;;;;;;;0.00;0.00;;;;;;;;;;5003342;28;20058;-93
2024/02/01 22:11:25;;;;;;;0.10;0.10;;;;;;;;;;4998552;28;20014;-93
2024/02/01 22:13:51;;;;;;;0.10;0.10;;;;;;;;;;5001560;28;20042;-93
2024/02/01 22:16:17;;;;;;;0.08;0.08;;;;;;;;;;5005963;28;20086;-94
2024/02/01 22:18:43;;;;;;;0.10;0.10;;;;;;;;;;4989700;28;20054;-93
2024/02/01 22:21:09;;;;;;;0.10;0.10;;;;;;;;;;5002326;28;20031;-95
2024/02/01 22:23:35;;;;;;;0.10;0.10;;;;;;;;;;5002660;28;20030;-93
2024/02/01 22:26:01;;;;;;;0.10;0.10;;;;;;;;;;4987564;28;20031;-94
2024/02/01 22:28:27;;;;;;;0.10;0.10;;;;;;;;;;4989800;28;20652;-94
2024/02/01 22:30:53;;;;;;;0.10;0.10;;;;;;;;;;4987454;28;20054;-94
2024/02/01 22:33:19;;;;;;;0.00;0.00;;;;;;;;;;4986718;28;20031;-94
2024/02/01 22:35:45;;;;;;;0.10;0.10;;;;;;;;;;4984687;28;20038;-94
2024/02/01 22:38:11;;;;;;;0.00;0.00;;;;;;;;;;4978857;28;20050;-95
2024/02/01 22:40:37;;;;;;;0.10;0.10;;;;;;;;;;4997792;28;20035;-93
2024/02/01 22:43:03;;;;;;;0.05;0.05;;;;;;;;;;4981956;28;20058;-93
2024/02/01 22:45:29;;;;;;;0.10;0.10;;;;;;;;;;4998180;28;20115;-93
2024/02/01 22:47:55;;;;;;;0.10;0.10;;;;;;;;;;4982519;28;20039;-93
2024/02/01 22:50:21;;;;;;;0.00;0.00;;;;;;;;;;4984897;28;20035;-95
2024/02/01 22:52:46;;;;;;;0.00;0.00;;;;;;;;;;4995473;28;20043;-94
2024/02/01 22:55:12;;;;;;;0.10;0.10;;;;;;;;;;4982765;28;20030;-94
2024/02/01 22:57:39;;;;;;;0.10;0.10;;;;;;;;;;4985819;28;20055;-93
2024/02/01 23:00:08;;;;;;;0.00;0.00;;;;;;;;;;4981608;28;20031;-95
2024/02/01 23:02:34;;;;;;;0.00;0.00;;;;;;;;;;4998066;28;20037;-95
2024/02/01 23:05:00;;;;;;;0.03;0.03;;;;;;;;;;4981783;28;20098;-94
2024/02/01 23:07:26;;;;;;;0.10;0.10;;;;;;;;;;4985942;28;20297;-92
2024/02/01 23:09:52;;;;;;;0.10;0.10;;;;;;;;;;5001713;28;20076;-93
2024/02/01 23:12:18;;;;;;;0.03;0.03;;;;;;;;;;5003145;28;20026;-94
2024/02/01 23:14:44;;;;;;;0.10;0.10;;;;;;;;;;4985175;28;20045;-93
2024/02/01 23:17:10;;;;;;;0.00;0.00;;;;;;;;;;4978157;28;20050;-94
2024/02/01 23:19:36;;;;;;;0.10;0.10;;;;;;;;;;4986311;28;20038;-95
2024/02/01 23:22:02;;;;;;;0.10;0.10;;;;;;;;;;4995576;28;20014;-94
2024/02/01 23:24:27;;;;;;;0.10;0.10;;;;;;;;;;4982520;28;20031;-92
2024/02/01 23:26:53;;;;;;;0.00;0.00;;;;;;;;;;4999958;28;20034;-93
2024/02/01 23:29:20;;;;;;;0.08;0.08;;;;;;;;;;4978423;28;20276;-93
2024/02/01 23:31:45;;;;;;;0.10;0.10;;;;;;;;;;4982154;28;20035;-93
2024/02/01 23:34:11;;;;;;;0.10;0.10;;;;;;;;;;4998272;28;20102;-93
2024/02/01 23:36:37;;;;;;;0.00;0.00;;;;;;;;;;4979324;28;20031;-93
2024/02/01 23:39:03;;;;;;;0.10;0.10;;;;;;;;;;4985680;28;20039;-93
2024/02/01 23:41:29;;;;;;;0.10;0.10;;;;;;;;;;4999189;28;20386;-94
2024/02/01 23:43:55;;;;;;;0.10;0.10;;;;;;;;;;5001162;28;20038;-94
2024/02/01 23:46:21;;;;;;;0.10;0.10;;;;;;;;;;4984652;28;20035;-93
2024/02/01 23:48:47;;;;;;;0.10;0.10;;;;;;;;;;4982751;28;20025;-94
2024/02/01 23:51:13;;;;;;;0.10;0.10;;;;;;;;;;4982298;28;20030;-94
2024/02/01 23:53:39;;;;;;;0.10;0.10;;;;;;;;;;4995932;28;20069;-93
2024/02/01 23:56:05;;;;;;;0.10;0.10;;;;;;;;;;4981304;28;20051;-94
2024/02/01 23:58:31;;;;;;;0.10;0.10;;;;;;;;;;4984423;28;20559;-93
